createdAt,value
2023-03-07T00:01:42.793Z,2.85
2023-03-07T00:03:43.746Z,4.72
2023-03-07T00:05:44.606Z,3.58
2023-03-07T00:07:45.584Z,3.55
2023-03-07T00:09:47.367Z,2.02
2023-03-07T00:11:49.474Z,3.80
2023-03-07T00:13:50.561Z,4.03
2023-03-07T00:15:51.454Z,6.87
2023-03-07T00:17:52.390Z,5.83
2023-03-07T00:19:53.264Z,5.75
2023-03-07T00:21:54.028Z,5.30
2023-03-07T00:23:54.921Z,2.90
2023-03-07T00:25:56.811Z,7.03
2023-03-07T00:27:57.696Z,6.12
2023-03-07T00:29:58.772Z,6.55
2023-03-07T00:31:59.905Z,8.50
2023-03-07T00:34:01.041Z,2.80
2023-03-07T00:36:03.860Z,8.45
2023-03-07T00:38:06.629Z,7.15
2023-03-07T00:40:08.785Z,7.78
2023-03-07T00:42:09.682Z,5.78
2023-03-07T00:44:10.549Z,9.13
2023-03-07T00:46:11.427Z,7.12
2023-03-07T00:48:12.323Z,6.12
2023-03-07T00:50:13.217Z,5.72
2023-03-07T00:52:14.116Z,14.58
2023-03-07T00:54:15.123Z,13.58
2023-03-07T00:56:17.920Z,6.60
2023-03-07T00:58:18.825Z,8.65
2023-03-07T01:00:20.030Z,8.15
2023-03-07T01:02:20.902Z,4.47
2023-03-07T01:04:21.870Z,8.40
2023-03-07T01:06:54.109Z,8.30
2023-03-07T01:08:56.597Z,10.70
2023-03-07T01:11:02.296Z,8.48
2023-03-07T01:15:05.843Z,8.68
2023-03-07T01:17:07.217Z,12.65
2023-03-07T01:19:11.303Z,10.80
2023-03-07T01:21:14.579Z,11.05
2023-03-07T01:23:15.867Z,8.63
2023-03-07T01:25:17.041Z,13.35
2023-03-07T01:27:18.423Z,13.38
2023-03-07T01:29:19.400Z,10.13
2023-03-07T01:31:21.025Z,10.18
2023-03-07T01:33:21.977Z,10.35
2023-03-07T01:35:22.895Z,5.97
2023-03-07T01:37:23.701Z,13.80
2023-03-07T01:39:24.867Z,9.83
2023-03-07T01:41:31.624Z,16.23
2023-03-07T01:43:33.802Z,9.48
2023-03-07T01:45:50.882Z,12.37
2023-03-07T01:47:52.717Z,8.20
2023-03-07T01:49:54.479Z,10.98
2023-03-07T01:52:06.843Z,6.75
2023-03-07T01:54:11.233Z,11.78
2023-03-07T01:56:12.505Z,8.25
2023-03-07T01:58:14.096Z,11.05
2023-03-07T02:00:18.209Z,4.20
2023-03-07T02:02:21.802Z,11.97
2023-03-07T02:04:27.427Z,7.42
2023-03-07T02:06:30.391Z,12.58
2023-03-07T02:08:32.205Z,13.98
2023-03-07T02:10:34.484Z,8.35
2023-03-07T02:12:35.662Z,11.48
2023-03-07T02:14:37.163Z,3.50
2023-03-07T02:16:38.343Z,12.18
2023-03-07T02:18:41.723Z,11.38
2023-03-07T02:20:44.431Z,9.20
2023-03-07T02:22:46.553Z,13.90
2023-03-07T02:24:58.234Z,5.85
2023-03-07T02:26:59.228Z,10.10
2023-03-07T02:29:01.008Z,15.35
2023-03-07T02:31:04.234Z,7.62
2023-03-07T02:33:07.001Z,10.30
2023-03-07T02:35:13.187Z,6.35
2023-03-07T02:37:28.876Z,10.25
2023-03-07T02:39:30.279Z,7.78
2023-03-07T02:41:32.352Z,8.55
2023-03-07T02:43:35.046Z,6.05
2023-03-07T02:45:36.640Z,10.98
2023-03-07T02:47:37.517Z,13.05
2023-03-07T02:49:39.030Z,10.50
2023-03-07T02:51:40.147Z,9.43
2023-03-07T02:53:41.021Z,9.80
2023-03-07T02:55:41.904Z,12.00
2023-03-07T02:57:42.824Z,13.55
2023-03-07T02:59:43.694Z,10.58
2023-03-07T03:01:45.130Z,13.88
2023-03-07T03:03:46.200Z,13.53
2023-03-07T03:05:50.268Z,9.20
2023-03-07T03:07:52.826Z,8.13
2023-03-07T03:09:53.726Z,12.65
2023-03-07T03:11:54.942Z,13.88
2023-03-07T03:13:57.310Z,11.55
2023-03-07T03:15:58.917Z,10.30
2023-03-07T03:17:59.796Z,15.20
2023-03-07T03:20:00.871Z,14.43
2023-03-07T03:22:01.679Z,13.88
2023-03-07T03:24:05.772Z,10.05
2023-03-07T03:26:09.073Z,10.35
2023-03-07T03:28:10.295Z,9.15
2023-03-07T03:30:11.882Z,12.80
2023-03-07T03:32:13.765Z,10.18
2023-03-07T03:34:16.570Z,11.55
2023-03-07T03:36:17.952Z,3.80
2023-03-07T03:38:20.494Z,7.15
2023-03-07T03:40:21.402Z,7.00
2023-03-07T03:42:22.462Z,9.35
2023-03-07T03:44:23.334Z,7.50
2023-03-07T03:46:24.492Z,5.75
2023-03-07T03:48:26.017Z,5.92
2023-03-07T03:50:27.798Z,3.05
2023-03-07T03:52:28.609Z,5.05
2023-03-07T03:54:30.313Z,4.72
2023-03-07T03:56:31.506Z,10.65
2023-03-07T03:58:32.689Z,9.73
2023-03-07T04:00:33.478Z,4.87
2023-03-07T04:02:34.531Z,10.98
2023-03-07T04:04:35.726Z,5.25
2023-03-07T04:06:36.521Z,8.70
2023-03-07T04:08:38.022Z,5.08
2023-03-07T04:10:41.519Z,7.28
2023-03-07T04:12:42.411Z,7.62
2023-03-07T04:14:43.218Z,7.17
2023-03-07T04:16:44.232Z,6.70
2023-03-07T04:18:45.172Z,9.80
2023-03-07T04:20:46.360Z,4.12
2023-03-07T04:22:47.482Z,6.15
2023-03-07T04:24:48.342Z,2.27
2023-03-07T04:26:49.658Z,1.70
2023-03-07T04:28:50.944Z,7.87
2023-03-07T04:30:59.608Z,4.42
2023-03-07T04:33:00.482Z,6.15
2023-03-07T04:35:01.378Z,7.22
2023-03-07T04:37:02.266Z,8.63
2023-03-07T04:39:03.426Z,7.28
2023-03-07T04:41:05.075Z,5.95
2023-03-07T04:43:06.279Z,6.20
2023-03-07T04:45:08.043Z,4.42
2023-03-07T04:47:09.736Z,4.12
2023-03-07T04:49:11.744Z,4.25
2023-03-07T04:51:14.535Z,7.35
2023-03-07T04:53:16.622Z,4.15
2023-03-07T04:55:17.582Z,3.30
2023-03-07T04:57:18.922Z,2.17
2023-03-07T04:59:21.465Z,3.47
2023-03-07T05:01:23.220Z,4.10
2023-03-07T05:03:25.461Z,4.70
2023-03-07T05:05:26.652Z,5.28
2023-03-07T05:07:29.239Z,4.17
2023-03-07T05:09:30.564Z,2.20
2023-03-07T05:11:32.860Z,4.00
2023-03-07T05:13:34.344Z,2.50
2023-03-07T05:15:35.172Z,2.45
2023-03-07T05:17:36.041Z,3.45
2023-03-07T05:19:36.905Z,3.87
2023-03-07T05:21:39.195Z,3.22
2023-03-07T05:23:40.588Z,2.92
2023-03-07T05:25:43.659Z,2.70
2023-03-07T05:27:47.485Z,2.35
2023-03-07T05:29:48.484Z,10.70
2023-03-07T05:31:49.351Z,1.50
2023-03-07T05:33:50.351Z,1.12
2023-03-07T05:35:51.250Z,2.50
2023-03-07T05:37:52.814Z,2.58
2023-03-07T05:39:54.133Z,1.45
2023-03-07T05:41:55.111Z,1.20
2023-03-07T05:43:57.592Z,0.35
2023-03-07T05:45:58.539Z,1.40
2023-03-07T05:47:59.873Z,0.80
2023-03-07T05:50:01.064Z,0.70
2023-03-07T05:52:03.480Z,1.07
2023-03-07T05:54:04.490Z,1.55
2023-03-07T05:56:05.716Z,2.17
2023-03-07T05:58:07.298Z,1.50
2023-03-07T06:00:09.116Z,0.82
2023-03-07T06:02:18.367Z,0.72
2023-03-07T06:04:19.414Z,1.30
2023-03-07T06:06:20.878Z,1.27
2023-03-07T06:08:21.856Z,0.98
2023-03-07T06:10:22.992Z,0.90
2023-03-07T06:12:23.906Z,0.47
2023-03-07T06:14:24.995Z,0.40
2023-03-07T06:16:26.545Z,1.37
2023-03-07T06:18:29.020Z,0.70
2023-03-07T06:20:29.910Z,0.40
2023-03-07T06:22:31.484Z,0.98
2023-03-07T06:24:32.564Z,0.60
2023-03-07T06:26:33.466Z,0.30
2023-03-07T06:28:34.497Z,1.22
2023-03-07T06:30:35.955Z,0.95
2023-03-07T06:32:36.903Z,0.80
2023-03-07T06:34:39.732Z,0.68
2023-03-07T06:36:40.604Z,0.70
2023-03-07T06:38:41.675Z,1.25
2023-03-07T06:40:42.916Z,0.98
2023-03-07T06:42:44.918Z,1.55
2023-03-07T06:44:45.888Z,0.35
2023-03-07T06:46:46.797Z,1.15
2023-03-07T06:48:51.677Z,0.20
2023-03-07T06:50:53.449Z,0.85
2023-03-07T06:52:54.643Z,0.75
2023-03-07T06:54:55.668Z,0.82
2023-03-07T06:56:56.536Z,0.60
2023-03-07T06:58:57.613Z,0.37
2023-03-07T07:00:58.897Z,0.93
2023-03-07T07:03:00.101Z,0.60
2023-03-07T07:05:02.417Z,0.68
2023-03-07T07:07:03.478Z,1.17
2023-03-07T07:09:07.152Z,1.07
2023-03-07T07:11:09.975Z,0.62
2023-03-07T07:13:11.870Z,0.33
2023-03-07T07:15:12.980Z,0.35
2023-03-07T07:17:13.866Z,1.00
2023-03-07T07:19:14.772Z,0.95
2023-03-07T07:21:16.252Z,0.95
2023-03-07T07:23:17.148Z,0.78
2023-03-07T07:25:18.129Z,1.27
2023-03-07T07:27:19.033Z,0.42
2023-03-07T07:29:20.658Z,1.07
2023-03-07T07:31:21.934Z,0.25
2023-03-07T07:33:22.889Z,0.85
2023-03-07T07:35:24.341Z,0.68
2023-03-07T07:37:27.125Z,0.47
2023-03-07T07:39:28.237Z,0.62
2023-03-07T07:41:29.185Z,0.85
2023-03-07T07:43:30.182Z,0.70
2023-03-07T07:45:42.410Z,0.50
2023-03-07T07:47:43.585Z,1.15
2023-03-07T07:49:44.479Z,0.75
2023-03-07T07:51:45.769Z,0.62
2023-03-07T07:53:46.662Z,0.60
2023-03-07T07:55:48.345Z,0.50
2023-03-07T07:57:50.233Z,1.40
2023-03-07T07:59:51.628Z,1.10
2023-03-07T08:01:52.586Z,0.50
2023-03-07T08:03:53.515Z,0.85
2023-03-07T08:05:54.443Z,1.05
2023-03-07T08:07:56.142Z,1.55
2023-03-07T08:09:56.923Z,0.33
2023-03-07T08:11:57.885Z,1.07
2023-03-07T08:13:58.662Z,0.50
2023-03-07T08:15:59.557Z,1.05
2023-03-07T08:18:00.552Z,0.65
2023-03-07T08:20:03.550Z,0.90
2023-03-07T08:22:04.334Z,0.98
2023-03-07T08:24:05.729Z,0.90
2023-03-07T08:26:08.119Z,0.20
2023-03-07T08:28:09.015Z,0.70
2023-03-07T08:30:10.586Z,1.47
2023-03-07T08:32:13.375Z,1.62
2023-03-07T08:34:14.275Z,0.75
2023-03-07T08:36:15.361Z,1.10
2023-03-07T08:38:16.159Z,0.90
2023-03-07T08:40:17.265Z,1.52
2023-03-07T08:42:18.409Z,1.20
2023-03-07T08:44:19.286Z,1.02
2023-03-07T08:46:20.588Z,1.95
2023-03-07T08:48:21.985Z,0.78
2023-03-07T08:50:24.597Z,1.15
2023-03-07T08:52:25.586Z,1.85
2023-03-07T08:54:27.277Z,1.15
2023-03-07T08:56:28.082Z,0.95
2023-03-07T08:58:28.971Z,0.65
2023-03-07T09:00:29.852Z,1.72
2023-03-07T09:02:30.757Z,0.88
2023-03-07T09:04:31.678Z,0.60
2023-03-07T09:06:32.537Z,0.95
2023-03-07T09:08:33.546Z,1.75
2023-03-07T09:10:34.835Z,0.90
2023-03-07T09:12:35.646Z,1.45
2023-03-07T09:14:36.436Z,1.77
2023-03-07T09:16:37.456Z,0.93
2023-03-07T09:18:38.415Z,0.30
2023-03-07T09:20:39.612Z,1.87
2023-03-07T09:22:40.378Z,1.67
2023-03-07T09:24:41.274Z,1.00
2023-03-07T09:26:42.183Z,1.25
2023-03-07T09:28:43.388Z,1.57
2023-03-07T09:30:44.282Z,0.50
2023-03-07T09:32:45.459Z,0.25
2023-03-07T09:34:46.637Z,1.60
2023-03-07T09:36:49.331Z,1.15
2023-03-07T09:38:50.118Z,1.02
2023-03-07T09:40:52.097Z,0.75
2023-03-07T09:42:57.875Z,0.30
2023-03-07T09:45:01.273Z,1.62
2023-03-07T09:47:17.717Z,1.20
2023-03-07T09:49:20.547Z,1.75
2023-03-07T09:51:25.402Z,0.95
2023-03-07T09:53:37.504Z,0.88
2023-03-07T09:55:39.005Z,0.30
2023-03-07T09:57:41.292Z,1.22
2023-03-07T09:59:49.552Z,1.40
2023-03-07T10:01:52.240Z,0.47
2023-03-07T10:03:55.033Z,0.40
2023-03-07T10:05:57.820Z,0.25
2023-03-07T10:08:00.018Z,0.60
2023-03-07T10:10:11.957Z,0.40
2023-03-07T10:12:16.627Z,0.20
2023-03-07T10:14:34.566Z,0.70
2023-03-07T10:16:37.438Z,0.47
2023-03-07T10:18:40.405Z,0.57
2023-03-07T10:20:48.504Z,1.45
2023-03-07T10:22:54.300Z,0.98
2023-03-07T10:24:57.088Z,0.57
2023-03-07T10:27:03.708Z,0.30
2023-03-07T10:29:09.404Z,0.17
2023-03-07T10:31:14.901Z,2.08
2023-03-07T10:33:17.645Z,1.47
2023-03-07T10:35:23.573Z,1.07
2023-03-07T10:37:26.456Z,0.75
2023-03-07T10:39:44.480Z,0.88
2023-03-07T10:41:45.352Z,0.45
2023-03-07T10:43:47.664Z,0.85
2023-03-07T10:45:48.841Z,1.32
2023-03-07T10:47:49.676Z,1.05
2023-03-07T10:49:52.773Z,1.52
2023-03-07T10:51:59.856Z,1.70
2023-03-07T10:54:01.633Z,0.75
2023-03-07T10:56:10.196Z,1.85
2023-03-07T10:58:12.950Z,0.55
2023-03-07T11:00:15.935Z,0.55
2023-03-07T11:02:27.568Z,0.30
2023-03-07T11:04:29.557Z,0.50
2023-03-07T11:06:34.970Z,0.80
2023-03-07T11:08:35.959Z,1.07
2023-03-07T11:10:40.279Z,1.12
2023-03-07T11:12:43.064Z,1.00
2023-03-07T11:14:51.623Z,1.07
2023-03-07T11:16:54.848Z,1.35
2023-03-07T11:18:56.795Z,1.25
2023-03-07T11:20:57.973Z,0.60
2023-03-07T11:23:17.560Z,1.12
2023-03-07T11:25:20.266Z,0.47
2023-03-07T11:27:22.359Z,0.90
2023-03-07T11:29:24.379Z,1.60
2023-03-07T11:31:27.173Z,0.82
2023-03-07T11:33:29.941Z,0.53
2023-03-07T11:35:35.801Z,1.87
2023-03-07T11:37:41.330Z,0.93
2023-03-07T11:39:47.073Z,0.62
2023-03-07T11:41:49.878Z,0.75
2023-03-07T11:44:08.129Z,0.75
2023-03-07T11:46:10.946Z,0.40
2023-03-07T11:48:32.264Z,0.72
2023-03-07T11:50:34.998Z,0.80
2023-03-07T11:52:40.492Z,0.82
2023-03-07T11:54:46.052Z,0.37
2023-03-07T11:56:48.850Z,0.57
2023-03-07T11:59:08.297Z,0.37
2023-03-07T12:01:19.946Z,0.80
2023-03-07T12:03:31.771Z,0.93
2023-03-07T12:05:40.597Z,0.95
2023-03-07T12:07:43.370Z,0.80
2023-03-07T12:09:55.250Z,0.93
2023-03-07T12:12:00.849Z,0.57
2023-03-07T12:14:20.260Z,1.32
2023-03-07T12:16:38.201Z,1.50
2023-03-07T12:18:47.154Z,0.55
2023-03-07T12:20:55.774Z,1.17
2023-03-07T12:22:58.654Z,0.78
2023-03-07T12:25:19.395Z,0.57
2023-03-07T12:27:24.035Z,1.02
2023-03-07T12:29:30.031Z,1.40
2023-03-07T12:31:35.460Z,0.55
2023-03-07T12:33:44.689Z,1.05
2023-03-07T12:35:47.514Z,0.20
2023-03-07T12:37:50.266Z,0.65
2023-03-07T12:40:01.980Z,0.40
2023-03-07T12:42:04.841Z,0.93
2023-03-07T12:44:07.524Z,1.42
2023-03-07T12:46:13.290Z,0.23
2023-03-07T12:48:25.400Z,0.55
2023-03-07T12:50:45.080Z,0.75
2023-03-07T12:52:47.812Z,0.68
2023-03-07T12:54:50.594Z,0.90
2023-03-07T12:57:05.520Z,0.30
2023-03-07T12:59:14.265Z,0.75
2023-03-07T13:01:17.186Z,0.35
2023-03-07T13:03:20.045Z,0.30
2023-03-07T13:05:21.148Z,0.55
2023-03-07T13:07:26.992Z,0.30
2023-03-07T13:09:28.210Z,0.50
2023-03-07T13:11:30.650Z,1.20
2023-03-07T13:13:44.183Z,1.10
2023-03-07T13:15:47.533Z,0.20
2023-03-07T13:17:50.337Z,0.55
2023-03-07T13:19:53.321Z,0.53
2023-03-07T13:21:54.321Z,0.93
2023-03-07T13:24:08.947Z,0.80
2023-03-07T13:26:11.245Z,0.30
2023-03-07T13:28:30.932Z,0.33
2023-03-07T13:30:32.302Z,0.70
2023-03-07T13:32:50.541Z,1.00
2023-03-07T13:34:51.852Z,0.72
2023-03-07T13:36:52.800Z,0.60
2023-03-07T13:38:53.582Z,1.00
2023-03-07T13:40:55.601Z,0.30
2023-03-07T13:42:56.633Z,0.50
2023-03-07T13:44:57.453Z,0.40
2023-03-07T13:47:00.232Z,0.53
2023-03-07T13:49:01.198Z,0.62
2023-03-07T13:51:03.074Z,0.68
2023-03-07T13:53:14.636Z,0.20
2023-03-07T13:55:17.361Z,0.53
2023-03-07T13:57:19.738Z,1.55
2023-03-07T13:59:23.678Z,0.62
2023-03-07T14:01:41.667Z,0.20
2023-03-07T14:03:50.622Z,0.20
2023-03-07T14:05:51.661Z,1.05
2023-03-07T14:07:52.946Z,0.30
2023-03-07T14:10:19.544Z,0.40
2023-03-07T14:12:17.651Z,0.62
2023-03-07T14:14:24.392Z,0.53
2023-03-07T14:16:33.079Z,0.70
2023-03-07T14:18:35.840Z,0.55
2023-03-07T14:20:56.732Z,0.65
2023-03-07T14:23:08.736Z,0.95
2023-03-07T14:25:11.518Z,0.40
2023-03-07T14:27:13.816Z,1.05
2023-03-07T14:29:21.048Z,0.35
2023-03-07T14:31:24.620Z,0.20
2023-03-07T14:33:33.377Z,0.40
2023-03-07T14:35:35.380Z,0.65
2023-03-07T14:37:38.140Z,1.95
2023-03-07T14:39:43.756Z,0.57
2023-03-07T14:41:49.711Z,0.33
2023-03-07T14:43:52.427Z,0.30
2023-03-07T14:45:55.209Z,0.50
2023-03-07T14:47:57.978Z,0.60
2023-03-07T14:50:06.754Z,0.42
2023-03-07T14:52:12.793Z,0.30
2023-03-07T14:54:17.362Z,0.25
2023-03-07T14:56:20.376Z,0.30
2023-03-07T14:58:29.413Z,1.65
2023-03-07T15:00:31.894Z,0.37
2023-03-07T15:02:32.793Z,0.57
2023-03-07T15:04:35.190Z,0.50
2023-03-07T15:06:38.063Z,0.30
2023-03-07T15:08:38.965Z,0.50
2023-03-07T15:10:43.755Z,0.57
2023-03-07T15:12:45.593Z,0.40
2023-03-07T15:14:48.290Z,0.60
2023-03-07T15:16:50.058Z,0.53
2023-03-07T15:18:52.732Z,0.50
2023-03-07T15:20:54.412Z,0.20
2023-03-07T15:22:59.959Z,0.70
2023-03-07T15:25:00.720Z,1.05
2023-03-07T15:27:01.956Z,1.00
2023-03-07T15:29:04.620Z,0.30
2023-03-07T15:31:06.348Z,0.42
2023-03-07T15:33:15.069Z,0.72
2023-03-07T15:35:17.758Z,0.42
2023-03-07T15:37:20.624Z,0.80
2023-03-07T15:39:26.380Z,0.28
2023-03-07T15:41:29.299Z,1.22
2023-03-07T15:43:33.962Z,0.40
2023-03-07T15:45:38.869Z,1.20
2023-03-07T15:47:39.826Z,0.33
2023-03-07T15:49:42.612Z,0.30
2023-03-07T15:51:43.524Z,0.20
2023-03-07T15:53:46.518Z,0.30
2023-03-07T15:55:49.330Z,0.40
2023-03-07T15:57:54.193Z,0.40
2023-03-07T15:59:57.085Z,0.33
2023-03-07T16:01:59.870Z,0.60
2023-03-07T16:04:04.980Z,0.60
2023-03-07T16:06:09.546Z,0.72
2023-03-07T16:08:12.888Z,0.35
2023-03-07T16:10:14.173Z,0.30
2023-03-07T16:12:16.830Z,1.27
2023-03-07T16:14:24.510Z,0.47
2023-03-07T16:16:27.347Z,0.40
2023-03-07T16:18:28.906Z,0.42
2023-03-07T16:20:29.823Z,0.35
2023-03-07T16:22:31.401Z,0.25
2023-03-07T16:24:32.323Z,0.93
2023-03-07T16:26:33.195Z,0.90
2023-03-07T16:28:34.165Z,0.30
2023-03-07T16:30:35.397Z,0.95
2023-03-07T16:32:36.244Z,0.30
2023-03-07T16:34:37.234Z,0.88
2023-03-07T16:36:38.145Z,0.40
2023-03-07T16:38:39.139Z,0.80
2023-03-07T16:40:41.925Z,0.10
2023-03-07T16:42:43.721Z,0.42
2023-03-07T16:44:44.693Z,1.12
2023-03-07T16:46:47.474Z,0.50
2023-03-07T16:48:48.385Z,0.50
2023-03-07T16:50:49.449Z,0.60
2023-03-07T16:52:50.331Z,0.30
2023-03-07T16:54:51.107Z,0.10
2023-03-07T16:56:53.306Z,0.28
2023-03-07T16:58:54.233Z,0.75
2023-03-07T17:00:55.546Z,0.45
2023-03-07T17:02:58.114Z,0.25
2023-03-07T17:04:59.044Z,0.42
2023-03-07T17:07:04.838Z,0.50
2023-03-07T17:09:03.901Z,0.10
2023-03-07T17:11:04.890Z,0.10
2023-03-07T17:13:07.564Z,0.20
2023-03-07T17:15:10.429Z,0.37
2023-03-07T17:17:21.174Z,0.20
2023-03-07T17:19:26.205Z,0.40
2023-03-07T17:21:27.182Z,0.35
2023-03-07T17:23:28.063Z,0.25
2023-03-07T17:25:29.056Z,0.55
2023-03-07T17:27:30.830Z,0.60
2023-03-07T17:29:33.661Z,0.10
2023-03-07T17:31:34.847Z,0.42
2023-03-07T17:33:35.726Z,0.20
2023-03-07T17:35:36.748Z,0.20
2023-03-07T17:37:37.582Z,0.33
2023-03-07T17:39:38.869Z,0.15
2023-03-07T17:41:39.747Z,0.10
2023-03-07T17:43:40.738Z,0.37
2023-03-07T17:45:41.612Z,0.33
2023-03-07T17:47:42.624Z,0.10
2023-03-07T17:49:44.228Z,0.47
2023-03-07T17:51:47.944Z,0.50
2023-03-07T17:53:48.829Z,0.10
2023-03-07T17:55:49.843Z,1.42
2023-03-07T17:57:51.450Z,0.10
2023-03-07T17:59:52.972Z,0.10
2023-03-07T18:01:54.215Z,0.28
2023-03-07T18:03:55.712Z,0.20
2023-03-07T18:06:00.213Z,0.35
2023-03-07T18:08:04.324Z,0.10
2023-03-07T18:10:08.668Z,1.55
2023-03-07T18:12:09.241Z,0.30
2023-03-07T18:14:11.805Z,0.28
2023-03-07T18:16:12.795Z,0.20
2023-03-07T18:18:13.680Z,0.50
2023-03-07T18:20:15.067Z,0.45
2023-03-07T18:22:15.964Z,0.50
2023-03-07T18:24:18.428Z,0.57
2023-03-07T18:26:20.102Z,0.40
2023-03-07T18:28:20.892Z,0.35
2023-03-07T18:30:21.948Z,0.40
2023-03-07T18:32:24.378Z,0.53
2023-03-07T18:34:25.224Z,0.30
2023-03-07T18:36:26.822Z,0.40
2023-03-07T18:38:27.755Z,0.10
2023-03-07T18:40:28.886Z,0.42
2023-03-07T18:42:30.160Z,0.30
2023-03-07T18:44:31.070Z,0.10
2023-03-07T18:46:32.210Z,0.20
2023-03-07T18:48:33.352Z,0.33
2023-03-07T18:50:34.185Z,0.45
2023-03-07T18:52:35.057Z,0.10
2023-03-07T18:54:35.848Z,0.20
2023-03-07T18:56:36.724Z,1.10
2023-03-07T18:58:37.902Z,0.30
2023-03-07T19:00:38.750Z,1.75
2023-03-07T19:02:39.633Z,0.23
2023-03-07T19:04:40.495Z,0.50
2023-03-07T19:06:44.293Z,0.45
2023-03-07T19:08:45.272Z,0.20
2023-03-07T19:10:46.161Z,0.20
2023-03-07T19:12:47.239Z,0.60
2023-03-07T19:14:48.044Z,0.40
2023-03-07T19:16:48.893Z,0.78
2023-03-07T19:18:50.545Z,0.30
2023-03-07T19:20:51.642Z,0.40
2023-03-07T19:22:53.034Z,0.30
2023-03-07T19:24:54.028Z,0.20
2023-03-07T19:26:55.196Z,0.53
2023-03-07T19:28:56.269Z,0.20
2023-03-07T19:30:57.114Z,0.75
2023-03-07T19:32:57.989Z,0.15
2023-03-07T19:35:00.692Z,0.25
2023-03-07T19:37:01.466Z,0.28
2023-03-07T19:39:02.933Z,0.20
2023-03-07T19:41:04.568Z,1.05
2023-03-07T19:43:05.332Z,0.10
2023-03-07T19:45:06.700Z,0.10
2023-03-07T19:47:07.492Z,0.25
2023-03-07T19:49:08.369Z,1.50
2023-03-07T19:51:13.889Z,0.62
2023-03-07T19:53:14.974Z,0.30
2023-03-07T19:55:15.861Z,0.42
2023-03-07T19:57:16.764Z,0.10
2023-03-07T19:59:17.931Z,0.25
2023-03-07T20:01:19.380Z,0.65
2023-03-07T20:03:20.233Z,0.53
2023-03-07T20:05:21.125Z,0.15
2023-03-07T20:07:21.976Z,0.20
2023-03-07T20:09:22.840Z,0.20
2023-03-07T20:11:27.140Z,0.33
2023-03-07T20:13:28.326Z,0.60
2023-03-07T20:15:29.376Z,0.10
2023-03-07T20:17:30.517Z,0.62
2023-03-07T20:19:31.297Z,0.10
2023-03-07T20:21:32.624Z,0.10
2023-03-07T20:23:34.018Z,0.50
2023-03-07T20:25:35.639Z,0.17
2023-03-07T20:27:36.685Z,0.78
2023-03-07T20:29:37.473Z,1.35
2023-03-07T20:31:38.570Z,0.65
2023-03-07T20:33:40.406Z,0.20
2023-03-07T20:35:41.298Z,0.10
2023-03-07T20:37:42.152Z,0.20
2023-03-07T20:39:43.257Z,0.78
2023-03-07T20:41:44.159Z,0.45
2023-03-07T20:43:45.062Z,0.15
2023-03-07T20:45:45.959Z,0.53
2023-03-07T20:47:46.871Z,0.30
2023-03-07T20:49:47.864Z,0.30
2023-03-07T20:51:49.000Z,0.10
2023-03-07T20:53:51.801Z,0.80
2023-03-07T20:55:52.693Z,0.30
2023-03-07T20:57:53.645Z,1.20
2023-03-07T20:59:54.562Z,0.68
2023-03-07T21:01:55.432Z,1.35
2023-03-07T21:03:58.268Z,0.28
2023-03-07T21:06:00.171Z,0.55
2023-03-07T21:08:01.146Z,0.47
2023-03-07T21:10:01.961Z,0.35
2023-03-07T21:12:03.679Z,0.30
2023-03-07T21:14:04.597Z,0.40
2023-03-07T21:16:09.996Z,0.40
2023-03-07T21:18:10.865Z,0.80
2023-03-07T21:20:11.992Z,0.20
2023-03-07T21:22:12.829Z,0.25
2023-03-07T21:24:14.823Z,0.62
2023-03-07T21:26:17.213Z,0.28
2023-03-07T21:28:18.130Z,0.20
2023-03-07T21:30:18.917Z,0.42
2023-03-07T21:32:19.753Z,0.50
2023-03-07T21:34:20.583Z,0.10
2023-03-07T21:36:22.285Z,1.00
2023-03-07T21:38:23.463Z,0.33
2023-03-07T21:40:24.541Z,0.75
2023-03-07T21:42:25.357Z,0.13
2023-03-07T21:44:26.255Z,0.35
2023-03-07T21:46:27.129Z,0.40
2023-03-07T21:48:27.912Z,1.47
2023-03-07T21:50:28.833Z,0.45
2023-03-07T21:52:29.706Z,1.00
2023-03-07T21:54:30.717Z,0.20
2023-03-07T21:56:31.616Z,0.40
2023-03-07T21:58:33.255Z,0.90
2023-03-07T22:00:34.453Z,0.20
2023-03-07T22:02:36.205Z,0.28
2023-03-07T22:04:37.410Z,0.30
2023-03-07T22:06:38.251Z,0.20
2023-03-07T22:08:39.733Z,0.20
2023-03-07T22:10:40.909Z,0.60
2023-03-07T22:12:41.886Z,0.50
2023-03-07T22:14:42.677Z,0.85
2023-03-07T22:16:43.607Z,0.10
2023-03-07T22:18:44.537Z,0.40
2023-03-07T22:20:45.415Z,0.40
2023-03-07T22:22:46.324Z,0.25
2023-03-07T22:24:50.576Z,0.40
2023-03-07T22:26:51.347Z,0.30
2023-03-07T22:28:52.496Z,0.30
2023-03-07T22:30:53.379Z,0.72
2023-03-07T22:32:54.257Z,0.68
2023-03-07T22:34:55.024Z,0.65
2023-03-07T22:36:56.705Z,0.45
2023-03-07T22:38:57.573Z,0.65
2023-03-07T22:41:03.673Z,0.20
2023-03-07T22:43:04.552Z,0.33
2023-03-07T22:45:06.001Z,0.50
2023-03-07T22:47:06.879Z,0.10
2023-03-07T22:49:09.265Z,2.10
2023-03-07T22:51:11.381Z,0.57
2023-03-07T22:53:12.372Z,0.40
2023-03-07T22:55:13.161Z,0.40
2023-03-07T22:57:13.952Z,0.70
2023-03-07T22:59:14.851Z,0.30
2023-03-07T23:01:20.176Z,0.30
2023-03-07T23:03:23.026Z,0.33
2023-03-07T23:05:23.904Z,0.20
2023-03-07T23:07:25.589Z,0.10
2023-03-07T23:09:26.498Z,0.40
2023-03-07T23:11:28.184Z,0.13
2023-03-07T23:13:29.358Z,0.47
2023-03-07T23:15:30.361Z,0.53
2023-03-07T23:17:31.300Z,0.40
2023-03-07T23:19:32.280Z,0.13
2023-03-07T23:21:33.661Z,0.40
2023-03-07T23:23:34.488Z,0.50
2023-03-07T23:25:37.404Z,0.40
2023-03-07T23:27:38.560Z,0.80
2023-03-07T23:29:39.521Z,0.15
2023-03-07T23:31:40.891Z,0.10
2023-03-07T23:33:41.664Z,0.93
2023-03-07T23:35:42.734Z,0.40
2023-03-07T23:37:43.636Z,0.80
2023-03-07T23:39:44.418Z,1.62
2023-03-07T23:41:45.689Z,0.10
2023-03-07T23:43:48.543Z,0.20
2023-03-07T23:45:49.465Z,0.65
2023-03-07T23:47:50.303Z,0.20
2023-03-07T23:49:51.216Z,0.37
2023-03-07T23:51:52.091Z,0.40
2023-03-07T23:53:52.986Z,0.20
2023-03-07T23:55:53.852Z,0.20
2023-03-07T23:57:54.631Z,0.15
2023-03-07T23:59:55.556Z,0.20
